Terminal Aerodrome Forecast
Issued by NWS Sterling, VA

Home | Current Version | Previous Version | Text Only | Print | Product List | Glossary On
Versions: 1 2 3 4 5 6 7 8 9 10 11 12 13 14 15 16
615
FTUS41 KLWX 131720
TAFMRB
TAF
KMRB 131720Z 1318/1418 30019G35KT P6SM BKN050
     FM140000 31015G25KT P6SM SCT050
     FM140600 31010G20KT P6SM FEW200
     FM141400 31007KT P6SM FEW200=

USA.gov is the U.S. government's official web portal to all federal, state and local government web resources and services.